createdAt,value
2019-03-21T00:00:03.429Z,83.98
2019-03-21T00:01:03.439Z,83.22
2019-03-21T00:02:03.457Z,82.60
2019-03-21T00:03:03.381Z,82.12
2019-03-21T00:04:03.367Z,82.90
2019-03-21T00:05:03.360Z,82.50
2019-03-21T00:06:03.400Z,82.50
2019-03-21T00:07:03.343Z,81.98
2019-03-21T00:08:03.320Z,81.77
2019-03-21T00:09:03.309Z,82.29
2019-03-21T00:10:03.304Z,82.90
2019-03-21T00:11:03.294Z,82.60
2019-03-21T00:12:03.316Z,83.01
2019-03-21T00:13:03.274Z,82.80
2019-03-21T00:14:07.167Z,82.80
2019-03-21T00:15:03.252Z,81.67
2019-03-21T00:16:03.233Z,82.18
2019-03-21T00:17:03.267Z,81.67
2019-03-21T00:18:03.216Z,81.15
2019-03-21T00:19:03.202Z,80.84
2019-03-21T00:20:03.199Z,80.98
2019-03-21T00:21:03.188Z,81.29
2019-03-21T00:22:03.214Z,81.49
2019-03-21T00:23:03.163Z,81.54
2019-03-21T00:24:03.154Z,81.95
2019-03-21T00:25:03.140Z,82.78
2019-03-21T00:26:03.181Z,82.67
2019-03-21T00:27:03.117Z,82.15
2019-03-21T00:28:03.143Z,82.78
2019-03-21T00:29:03.096Z,82.57
2019-03-21T00:30:03.091Z,82.67
2019-03-21T00:31:03.074Z,82.78
2019-03-21T00:32:03.061Z,82.57
2019-03-21T00:33:03.053Z,82.98
2019-03-21T00:34:03.090Z,83.09
2019-03-21T00:35:03.077Z,83.29
2019-03-21T00:36:03.025Z,83.40
2019-03-21T00:37:03.007Z,83.09
2019-03-21T00:38:02.998Z,82.88
2019-03-21T00:39:02.987Z,82.88
2019-03-21T00:40:02.977Z,83.09
2019-03-21T00:41:03.012Z,83.09
2019-03-21T00:42:02.972Z,82.71
2019-03-21T00:43:02.943Z,82.36
2019-03-21T00:44:02.932Z,82.71
2019-03-21T00:45:02.926Z,81.74
2019-03-21T00:46:02.909Z,83.33
2019-03-21T00:47:02.940Z,83.12
2019-03-21T00:48:02.888Z,83.37
2019-03-21T00:49:02.879Z,83.33
2019-03-21T00:50:02.867Z,83.16
2019-03-21T00:51:02.883Z,83.68
2019-03-21T00:52:02.851Z,83.68
2019-03-21T00:53:02.880Z,84.41
2019-03-21T00:54:02.824Z,84.09
2019-03-21T00:55:02.817Z,83.78
2019-03-21T00:56:02.802Z,83.64
2019-03-21T00:57:02.802Z,83.54
2019-03-21T00:58:02.829Z,84.06
2019-03-21T00:59:02.777Z,83.68
2019-03-21T01:00:02.770Z,84.41
2019-03-21T01:01:02.748Z,84.41
2019-03-21T01:02:02.790Z,85.44
2019-03-21T01:03:03.774Z,85.34
2019-03-21T01:04:02.715Z,84.72
2019-03-21T01:05:02.717Z,84.72
2019-03-21T01:06:02.694Z,84.09
2019-03-21T01:07:02.728Z,84.30
2019-03-21T01:08:02.719Z,84.61
2019-03-21T01:09:02.661Z,83.72
2019-03-21T01:10:02.680Z,83.10
2019-03-21T01:11:02.682Z,83.10
2019-03-21T01:12:02.631Z,84.20
2019-03-21T01:13:02.622Z,84.92
2019-03-21T01:14:02.645Z,86.23
2019-03-21T01:15:02.602Z,84.33
2019-03-21T01:16:02.586Z,83.71
2019-03-21T01:17:02.579Z,83.23
2019-03-21T01:18:02.610Z,82.46
2019-03-21T01:19:02.555Z,82.57
2019-03-21T01:20:02.545Z,83.09
2019-03-21T01:21:02.569Z,82.46
2019-03-21T01:22:02.526Z,82.81
2019-03-21T01:23:02.515Z,82.81
2019-03-21T01:24:02.499Z,82.71
2019-03-21T01:25:02.490Z,83.06
2019-03-21T01:26:02.523Z,83.06
2019-03-21T01:27:02.467Z,83.78
2019-03-21T01:28:02.498Z,83.47
2019-03-21T01:29:02.455Z,83.89
2019-03-21T01:30:02.437Z,83.99
2019-03-21T01:31:02.472Z,83.89
2019-03-21T01:32:02.415Z,85.55
2019-03-21T01:33:02.402Z,84.61
2019-03-21T01:34:02.431Z,84.20
2019-03-21T01:35:02.384Z,84.44
2019-03-21T01:36:02.412Z,85.03
2019-03-21T01:37:02.361Z,84.92
2019-03-21T01:38:02.350Z,84.13
2019-03-21T01:39:02.381Z,84.44
2019-03-21T01:40:02.327Z,85.24
2019-03-21T01:41:02.323Z,86.47
2019-03-21T01:42:02.305Z,86.02
2019-03-21T01:43:02.295Z,85.71
2019-03-21T01:44:02.284Z,85.50
2019-03-21T01:45:02.320Z,85.19
2019-03-21T01:46:02.261Z,85.26
2019-03-21T01:47:02.267Z,85.47
2019-03-21T01:48:02.281Z,83.71
2019-03-21T01:49:02.236Z,84.43
2019-03-21T01:50:02.219Z,85.05
2019-03-21T01:51:02.213Z,84.37
2019-03-21T01:52:02.198Z,84.99
2019-03-21T01:53:02.197Z,85.19
2019-03-21T01:54:02.216Z,84.47
2019-03-21T01:55:02.166Z,84.78
2019-03-21T01:56:02.200Z,84.78
2019-03-21T01:57:02.148Z,84.68
2019-03-21T01:58:02.134Z,84.99
2019-03-21T01:59:02.127Z,85.92
2019-03-21T02:00:02.115Z,86.02
2019-03-21T02:01:02.148Z,85.92
2019-03-21T02:02:02.134Z,85.61
2019-03-21T02:03:02.115Z,85.26
2019-03-21T02:04:02.073Z,84.68
2019-03-21T02:05:02.059Z,84.06
2019-03-21T02:06:02.062Z,84.82
2019-03-21T02:07:02.090Z,85.03
2019-03-21T02:08:02.030Z,85.03
2019-03-21T02:09:02.018Z,86.07
2019-03-21T02:10:02.047Z,86.07
2019-03-21T02:11:02.034Z,86.58
2019-03-21T02:12:01.982Z,85.79
2019-03-21T02:13:01.971Z,85.79
2019-03-21T02:14:01.961Z,86.31
2019-03-21T02:15:01.954Z,87.45
2019-03-21T02:16:01.984Z,87.66
2019-03-21T02:17:01.934Z,87.82
2019-03-21T02:18:01.919Z,87.41
2019-03-21T02:19:01.950Z,87.30
2019-03-21T02:20:01.949Z,86.07
2019-03-21T02:21:01.908Z,86.02
2019-03-21T02:22:01.920Z,85.96
2019-03-21T02:23:01.905Z,85.82
2019-03-21T02:24:01.853Z,85.61
2019-03-21T02:25:01.841Z,86.33
2019-03-21T02:26:01.835Z,86.60
2019-03-21T02:27:01.821Z,85.71
2019-03-21T02:28:01.814Z,84.78
2019-03-21T02:29:01.841Z,84.27
2019-03-21T02:30:01.856Z,83.85
2019-03-21T02:31:01.794Z,84.37
2019-03-21T02:32:01.792Z,83.68
2019-03-21T02:33:01.757Z,84.30
2019-03-21T02:34:01.754Z,84.51
2019-03-21T02:35:01.774Z,84.82
2019-03-21T02:36:01.745Z,85.34
2019-03-21T02:37:01.759Z,85.75
2019-03-21T02:38:01.706Z,85.86
2019-03-21T02:39:01.694Z,85.27
2019-03-21T02:40:01.691Z,85.65
2019-03-21T02:41:01.719Z,85.79
2019-03-21T02:42:01.709Z,86.52
2019-03-21T02:43:01.679Z,86.41
2019-03-21T02:44:01.642Z,86.41
2019-03-21T02:45:08.402Z,86.41
2019-03-21T02:46:02.615Z,85.58
2019-03-21T02:47:01.604Z,86.10
2019-03-21T02:48:01.634Z,86.00
2019-03-21T02:49:01.586Z,85.89
2019-03-21T02:50:01.628Z,86.58
2019-03-21T02:51:01.565Z,86.00
2019-03-21T02:52:01.556Z,86.21
2019-03-21T02:53:01.548Z,86.41
2019-03-21T02:54:01.578Z,86.41
2019-03-21T02:55:01.569Z,85.79
2019-03-21T02:56:01.517Z,86.41
2019-03-21T02:57:01.497Z,85.89
2019-03-21T02:58:01.491Z,85.27
2019-03-21T02:59:01.478Z,86.31
2019-03-21T03:00:01.512Z,85.89
2019-03-21T03:01:01.508Z,85.79
2019-03-21T03:02:01.448Z,85.79
2019-03-21T03:03:01.439Z,85.06
2019-03-21T03:04:01.423Z,85.48
2019-03-21T03:05:01.412Z,85.06
2019-03-21T03:06:01.456Z,84.75
2019-03-21T03:07:01.437Z,85.52
2019-03-21T03:08:01.379Z,85.73
2019-03-21T03:09:01.425Z,85.83
2019-03-21T03:10:01.411Z,86.04
2019-03-21T03:11:01.362Z,86.55
2019-03-21T03:12:01.340Z,86.00
2019-03-21T03:13:01.324Z,86.00
2019-03-21T03:14:04.344Z,85.48
2019-03-21T03:15:01.307Z,85.21
2019-03-21T03:16:01.346Z,86.25
2019-03-21T03:17:01.319Z,86.35
2019-03-21T03:18:01.271Z,85.83
2019-03-21T03:19:01.259Z,86.25
2019-03-21T03:20:01.248Z,87.38
2019-03-21T03:21:01.242Z,88.18
2019-03-21T03:22:01.280Z,87.66
2019-03-21T03:23:01.216Z,86.72
2019-03-21T03:24:01.205Z,86.52
2019-03-21T03:25:01.196Z,85.89
2019-03-21T03:26:01.189Z,85.79
2019-03-21T03:27:01.217Z,86.10
2019-03-21T03:28:01.208Z,85.58
2019-03-21T03:29:01.151Z,86.72
2019-03-21T03:30:01.165Z,86.31
2019-03-21T03:31:01.145Z,85.83
2019-03-21T03:32:01.125Z,86.55
2019-03-21T03:33:01.217Z,86.70
2019-03-21T03:34:01.096Z,87.80
2019-03-21T03:35:01.301Z,87.59
2019-03-21T03:36:01.075Z,87.18
2019-03-21T03:37:01.070Z,86.97
2019-03-21T03:38:01.109Z,86.66
2019-03-21T03:39:01.042Z,87.32
2019-03-21T03:40:01.047Z,87.38
2019-03-21T03:41:01.021Z,88.18
2019-03-21T03:42:01.008Z,86.93
2019-03-21T03:43:01.060Z,86.31
2019-03-21T03:44:00.987Z,86.41
2019-03-21T03:45:00.980Z,86.41
2019-03-21T03:46:00.974Z,86.31
2019-03-21T03:47:00.958Z,86.31
2019-03-21T03:48:00.989Z,86.93
2019-03-21T03:49:00.934Z,86.31
2019-03-21T03:50:00.963Z,85.79
2019-03-21T03:51:00.909Z,85.79
2019-03-21T03:52:00.912Z,85.83
2019-03-21T03:53:00.889Z,86.25
2019-03-21T03:54:00.883Z,87.66
2019-03-21T03:55:00.870Z,87.38
2019-03-21T03:56:00.908Z,87.35
2019-03-21T03:57:00.867Z,86.41
2019-03-21T03:58:00.841Z,86.52
2019-03-21T03:59:00.830Z,86.83
2019-03-21T04:00:00.813Z,86.31
2019-03-21T04:01:00.802Z,86.21
2019-03-21T04:02:00.851Z,85.79
2019-03-21T04:03:00.824Z,85.17
2019-03-21T04:04:00.777Z,85.58
2019-03-21T04:05:00.758Z,85.11
2019-03-21T04:06:00.761Z,85.52
2019-03-21T04:07:00.740Z,85.31
2019-03-21T04:08:00.744Z,86.04
2019-03-21T04:09:00.764Z,88.07
2019-03-21T04:10:00.704Z,86.41
2019-03-21T04:11:00.699Z,85.63
2019-03-21T04:12:00.686Z,86.04
2019-03-21T04:13:00.675Z,86.45
2019-03-21T04:14:00.670Z,85.63
2019-03-21T04:15:00.698Z,85.77
2019-03-21T04:16:00.638Z,85.87
2019-03-21T04:17:00.629Z,86.49
2019-03-21T04:18:00.618Z,86.70
2019-03-21T04:19:00.616Z,86.80
2019-03-21T04:20:00.598Z,86.70
2019-03-21T04:21:00.638Z,86.39
2019-03-21T04:22:00.592Z,86.80
2019-03-21T04:23:00.570Z,87.22
2019-03-21T04:24:00.557Z,87.90
2019-03-21T04:25:00.590Z,87.12
2019-03-21T04:26:00.533Z,87.22
2019-03-21T04:27:00.570Z,86.55
2019-03-21T04:28:00.520Z,86.25
2019-03-21T04:29:00.497Z,86.25
2019-03-21T04:30:00.495Z,86.45
2019-03-21T04:31:00.478Z,86.97
2019-03-21T04:32:00.516Z,87.38
2019-03-21T04:33:00.457Z,87.01
2019-03-21T04:34:00.485Z,86.18
2019-03-21T04:35:00.431Z,86.08
2019-03-21T04:36:00.423Z,87.53
2019-03-21T04:37:00.411Z,86.39
2019-03-21T04:38:00.405Z,87.68
2019-03-21T04:39:00.445Z,86.80
2019-03-21T04:40:00.471Z,88.15
2019-03-21T04:41:00.369Z,87.32
2019-03-21T04:42:00.356Z,87.12
2019-03-21T04:43:00.346Z,86.49
2019-03-21T04:44:00.380Z,86.08
2019-03-21T04:45:00.346Z,87.32
2019-03-21T04:46:03.769Z,87.53
2019-03-21T04:47:00.300Z,87.43
2019-03-21T04:48:00.291Z,86.49
2019-03-21T04:49:00.329Z,86.29
2019-03-21T04:50:00.354Z,87.12
2019-03-21T04:51:00.307Z,86.18
2019-03-21T04:52:00.262Z,86.70
2019-03-21T04:53:00.236Z,86.70
2019-03-21T04:54:00.236Z,86.49
2019-03-21T04:55:00.412Z,85.46
2019-03-21T04:56:00.203Z,85.56
2019-03-21T04:57:00.240Z,86.35
2019-03-21T04:58:00.192Z,85.66
2019-03-21T04:59:00.175Z,86.55
2019-03-21T05:00:00.572Z,86.70
2019-03-21T05:01:00.149Z,85.94
2019-03-21T05:02:00.140Z,86.15
2019-03-21T05:03:00.167Z,86.08
2019-03-21T05:04:00.119Z,85.83
2019-03-21T05:05:00.115Z,86.15
2019-03-21T05:06:00.098Z,85.35
2019-03-21T05:07:00.085Z,86.70
2019-03-21T05:08:00.080Z,86.60
2019-03-21T05:09:00.103Z,86.15
2019-03-21T05:10:00.053Z,86.15
2019-03-21T05:11:00.042Z,85.31
2019-03-21T05:12:00.031Z,85.42
2019-03-21T05:13:00.022Z,85.83
2019-03-21T05:14:00.014Z,84.90
2019-03-21T05:15:00.051Z,85.31
2019-03-21T05:15:59.989Z,86.35
2019-03-21T05:16:59.977Z,84.94
2019-03-21T05:17:59.966Z,85.11
2019-03-21T05:18:59.958Z,85.35
2019-03-21T05:19:59.948Z,85.31
2019-03-21T05:20:59.974Z,85.63
2019-03-21T05:21:59.972Z,84.90
2019-03-21T05:22:59.912Z,85.14
2019-03-21T05:23:59.941Z,85.83
2019-03-21T05:24:59.900Z,85.83
2019-03-21T05:25:59.927Z,86.35
2019-03-21T05:26:59.913Z,86.35
2019-03-21T05:27:59.859Z,85.63
2019-03-21T05:28:59.846Z,85.31
2019-03-21T05:29:59.860Z,84.80
2019-03-21T05:30:59.883Z,85.00
2019-03-21T05:31:59.819Z,85.56
2019-03-21T05:32:59.801Z,85.87
2019-03-21T05:33:59.792Z,86.49
2019-03-21T05:34:59.781Z,86.80
2019-03-21T05:35:59.775Z,86.49
2019-03-21T05:36:59.806Z,86.08
2019-03-21T05:37:59.824Z,85.71
2019-03-21T05:38:59.741Z,87.22
2019-03-21T05:39:59.738Z,87.53
2019-03-21T05:40:59.717Z,87.63
2019-03-21T05:41:59.713Z,86.49
2019-03-21T05:42:59.706Z,86.60
2019-03-21T05:43:59.730Z,86.49
2019-03-21T05:44:59.672Z,85.97
2019-03-21T05:45:59.668Z,86.18
2019-03-21T05:46:59.654Z,86.18
2019-03-21T05:47:59.648Z,86.80
2019-03-21T05:48:59.631Z,86.91
2019-03-21T05:49:59.659Z,86.49
2019-03-21T05:50:59.615Z,85.66
2019-03-21T05:51:59.597Z,87.12
2019-03-21T05:52:59.589Z,86.76
2019-03-21T05:53:59.577Z,86.55
2019-03-21T05:54:59.610Z,86.66
2019-03-21T05:55:59.574Z,85.87
2019-03-21T05:56:59.543Z,87.01
2019-03-21T05:57:59.576Z,86.45
2019-03-21T05:58:59.531Z,86.70
2019-03-21T05:59:59.512Z,86.18
2019-03-21T06:00:59.546Z,86.80
2019-03-21T06:01:59.513Z,86.15
2019-03-21T06:02:59.482Z,86.18
2019-03-21T06:03:59.593Z,85.94
2019-03-21T06:04:59.472Z,86.18
2019-03-21T06:05:59.515Z,87.24
2019-03-21T06:06:59.462Z,86.21
2019-03-21T06:07:59.448Z,85.21
2019-03-21T06:08:59.491Z,85.73
2019-03-21T06:09:59.433Z,86.21
2019-03-21T06:10:59.414Z,86.10
2019-03-21T06:11:59.392Z,85.58
2019-03-21T06:12:59.382Z,85.79
2019-03-21T06:13:59.364Z,85.27
2019-03-21T06:14:59.401Z,84.13
2019-03-21T06:15:59.352Z,84.86
2019-03-21T06:16:59.420Z,84.55
2019-03-21T06:17:59.331Z,84.48
2019-03-21T06:18:59.409Z,85.17
2019-03-21T06:19:59.316Z,85.52
2019-03-21T06:20:59.298Z,84.90
2019-03-21T06:21:59.276Z,86.10
2019-03-21T06:22:59.338Z,85.17
2019-03-21T06:23:59.301Z,85.48
2019-03-21T06:24:59.265Z,84.65
2019-03-21T06:25:59.332Z,85.06
2019-03-21T06:26:59.239Z,85.03
2019-03-21T06:27:59.210Z,84.86
2019-03-21T06:28:59.255Z,83.83
2019-03-21T06:29:59.251Z,85.55
2019-03-21T06:30:59.230Z,84.72
2019-03-21T06:31:59.180Z,83.72
2019-03-21T06:32:59.205Z,84.30
2019-03-21T06:33:59.147Z,84.72
2019-03-21T06:34:59.155Z,85.03
2019-03-21T06:35:59.200Z,83.78
2019-03-21T06:36:59.178Z,84.13
2019-03-21T06:37:59.116Z,84.55
2019-03-21T06:38:59.126Z,84.72
2019-03-21T06:39:59.091Z,84.61
2019-03-21T06:40:59.114Z,84.72
2019-03-21T06:41:59.062Z,83.89
2019-03-21T06:42:59.341Z,83.99
2019-03-21T06:43:59.049Z,83.68
2019-03-21T06:44:59.029Z,84.51
2019-03-21T06:45:59.059Z,83.68
2019-03-21T06:46:59.044Z,83.75
2019-03-21T06:47:59.017Z,85.50
2019-03-21T06:48:59.088Z,83.75
2019-03-21T06:49:58.984Z,83.29
2019-03-21T06:50:58.986Z,83.54
2019-03-21T06:51:58.972Z,82.57
2019-03-21T06:52:58.951Z,83.29
2019-03-21T06:53:58.930Z,82.98
2019-03-21T06:54:59.973Z,82.67
2019-03-21T06:55:58.911Z,83.19
2019-03-21T06:56:58.915Z,82.88
2019-03-21T06:57:58.914Z,82.88
2019-03-21T06:58:58.885Z,83.91
2019-03-21T06:59:58.948Z,83.25
2019-03-21T07:00:59.157Z,82.84
2019-03-21T07:01:58.909Z,82.95
2019-03-21T07:02:58.873Z,83.05
2019-03-21T07:04:06.998Z,82.90
2019-03-21T07:04:59.811Z,82.70
2019-03-21T07:05:58.815Z,81.56
2019-03-21T07:07:07.599Z,81.25
2019-03-21T07:07:59.919Z,81.42
2019-03-21T07:08:58.767Z,81.42
2019-03-21T07:09:58.759Z,81.38
2019-03-21T07:10:58.810Z,81.18
2019-03-21T07:11:58.789Z,80.25
2019-03-21T07:12:58.778Z,79.73
2019-03-21T07:13:58.792Z,79.94
2019-03-21T07:14:58.755Z,80.39
2019-03-21T07:15:58.709Z,81.59
2019-03-21T07:17:00.607Z,80.35
2019-03-21T07:17:59.594Z,81.18
2019-03-21T07:18:58.662Z,80.32
2019-03-21T07:19:58.677Z,80.04
2019-03-21T07:21:01.006Z,78.77
2019-03-21T07:21:59.612Z,78.87
2019-03-21T07:22:58.694Z,79.69
2019-03-21T07:23:58.688Z,78.87
2019-03-21T07:24:58.657Z,78.77
2019-03-21T07:25:59.539Z,78.01
2019-03-21T07:26:59.139Z,78.45
2019-03-21T07:27:58.578Z,77.59
2019-03-21T07:28:58.683Z,79.25
2019-03-21T07:29:58.573Z,78.73
2019-03-21T07:30:58.550Z,78.31
2019-03-21T07:31:58.610Z,76.98
2019-03-21T07:32:58.570Z,76.46
2019-03-21T07:33:58.504Z,77.25
2019-03-21T07:34:58.530Z,76.56
2019-03-21T07:35:58.496Z,76.56
2019-03-21T07:36:58.487Z,76.77
2019-03-21T07:37:58.549Z,77.01
2019-03-21T07:38:59.054Z,78.21
2019-03-21T07:39:58.450Z,78.42
2019-03-21T07:40:58.436Z,77.04
2019-03-21T07:42:01.012Z,77.04
2019-03-21T07:42:58.419Z,77.08
2019-03-21T07:43:58.485Z,77.04
2019-03-21T07:44:58.390Z,77.56
2019-03-21T07:45:58.413Z,76.94
2019-03-21T07:46:58.383Z,77.83
2019-03-21T07:47:58.403Z,77.22
2019-03-21T07:48:58.358Z,76.59
2019-03-21T07:49:58.435Z,76.87
2019-03-21T07:50:58.349Z,77.28
2019-03-21T07:51:58.317Z,75.12
2019-03-21T07:52:58.448Z,76.11
2019-03-21T07:53:58.299Z,75.70
2019-03-21T07:54:58.369Z,74.77
2019-03-21T07:55:58.272Z,74.88
2019-03-21T07:56:58.361Z,75.08
2019-03-21T07:57:59.491Z,74.98
2019-03-21T07:58:58.254Z,75.08
2019-03-21T07:59:58.238Z,74.84
2019-03-21T08:00:58.271Z,74.74
2019-03-21T08:01:59.106Z,75.05
2019-03-21T08:02:58.212Z,73.95
2019-03-21T08:03:58.240Z,74.02
2019-03-21T08:04:58.226Z,73.81
2019-03-21T08:05:58.173Z,73.81
2019-03-21T08:06:58.213Z,74.63
2019-03-21T08:07:59.048Z,74.33
2019-03-21T08:08:58.613Z,73.68
2019-03-21T08:09:58.112Z,73.88
2019-03-21T08:10:58.189Z,73.57
2019-03-21T08:11:58.127Z,72.96
2019-03-21T08:12:58.094Z,72.75
2019-03-21T08:13:58.146Z,73.71
2019-03-21T08:14:58.216Z,73.36
2019-03-21T08:15:58.048Z,73.68
2019-03-21T08:16:58.163Z,72.34
2019-03-21T08:17:58.540Z,73.16
2019-03-21T08:18:58.544Z,72.44
2019-03-21T08:19:58.119Z,72.34
2019-03-21T08:21:00.047Z,73.02
2019-03-21T08:21:58.002Z,73.02
2019-03-21T08:22:58.118Z,74.15
2019-03-21T08:23:57.976Z,71.86
2019-03-21T08:24:57.964Z,72.30
2019-03-21T08:25:58.038Z,72.17
2019-03-21T08:26:57.942Z,72.17
2019-03-21T08:27:57.919Z,72.58
2019-03-21T08:28:57.919Z,71.21
2019-03-21T08:29:57.958Z,71.93
2019-03-21T08:30:57.890Z,74.22
2019-03-21T08:31:57.893Z,70.32
2019-03-21T08:32:57.852Z,69.29
2019-03-21T08:33:57.847Z,69.40
2019-03-21T08:34:57.913Z,69.19
2019-03-21T08:35:58.122Z,68.75
2019-03-21T08:36:57.825Z,69.16
2019-03-21T08:37:57.798Z,68.85
2019-03-21T08:38:57.802Z,68.65
2019-03-21T08:39:57.828Z,68.03
2019-03-21T08:40:57.787Z,67.32
2019-03-21T08:41:57.757Z,66.70
2019-03-21T08:42:57.759Z,67.41
2019-03-21T08:43:57.950Z,67.83
2019-03-21T08:44:57.795Z,67.49
2019-03-21T08:45:57.741Z,66.60
2019-03-21T08:46:57.703Z,68.51
2019-03-21T08:47:58.544Z,67.97
2019-03-21T08:48:57.690Z,65.71
2019-03-21T08:49:57.729Z,65.99
2019-03-21T08:51:07.829Z,65.92
2019-03-21T08:51:58.710Z,65.30
2019-03-21T08:52:57.663Z,69.27
2019-03-21T08:53:57.657Z,65.75
2019-03-21T08:54:57.628Z,63.91
2019-03-21T08:55:58.085Z,63.91
2019-03-21T08:56:57.641Z,63.81
2019-03-21T08:57:57.631Z,63.50
2019-03-21T08:58:57.570Z,63.20
2019-03-21T08:59:57.615Z,63.70
2019-03-21T09:00:57.642Z,63.29
2019-03-21T09:01:57.535Z,63.50
2019-03-21T09:02:57.523Z,63.17
2019-03-21T09:03:57.571Z,62.76
2019-03-21T09:04:59.683Z,62.55
2019-03-21T09:05:57.492Z,63.47
2019-03-21T09:06:57.487Z,62.96
2019-03-21T09:07:57.487Z,61.50
2019-03-21T09:08:57.465Z,62.24
2019-03-21T09:09:57.484Z,62.04
2019-03-21T09:10:57.512Z,62.01
2019-03-21T09:11:57.530Z,61.40
2019-03-21T09:12:57.458Z,61.77
2019-03-21T09:13:57.422Z,60.14
2019-03-21T09:14:57.483Z,60.35
2019-03-21T09:15:57.481Z,60.21
2019-03-21T09:16:57.369Z,60.93
2019-03-21T09:17:57.425Z,59.30
2019-03-21T09:18:57.357Z,59.27
2019-03-21T09:19:57.361Z,58.86
2019-03-21T09:20:58.057Z,59.47
2019-03-21T09:21:57.365Z,58.34
2019-03-21T09:22:57.308Z,58.34
2019-03-21T09:23:57.346Z,57.70
2019-03-21T09:24:57.300Z,58.11
2019-03-21T09:25:57.260Z,57.17
2019-03-21T09:26:57.278Z,57.48
2019-03-21T09:28:02.574Z,57.78
2019-03-21T09:28:58.287Z,57.48
2019-03-21T09:29:57.240Z,56.25
2019-03-21T09:30:57.219Z,56.66
2019-03-21T09:31:57.212Z,56.32
2019-03-21T09:32:57.187Z,55.91
2019-03-21T09:33:57.284Z,55.91
2019-03-21T09:34:57.210Z,55.71
2019-03-21T09:35:57.150Z,54.87
2019-03-21T09:36:57.171Z,54.67
2019-03-21T09:37:57.174Z,54.05
2019-03-21T09:38:57.119Z,54.26
2019-03-21T09:39:57.191Z,54.87
2019-03-21T09:40:57.192Z,53.92
2019-03-21T09:41:57.113Z,53.42
2019-03-21T09:42:57.080Z,53.62
2019-03-21T09:43:57.090Z,53.19
2019-03-21T09:44:57.083Z,53.39
2019-03-21T09:45:57.089Z,52.78
2019-03-21T09:46:57.035Z,51.99
2019-03-21T09:47:57.028Z,51.46
2019-03-21T09:48:57.017Z,52.07
2019-03-21T09:49:59.226Z,51.35
2019-03-21T09:50:57.129Z,51.56
2019-03-21T09:51:56.991Z,51.35
2019-03-21T09:52:56.967Z,51.64
2019-03-21T09:53:56.980Z,50.11
2019-03-21T09:54:56.937Z,49.60
2019-03-21T09:55:57.167Z,48.56
2019-03-21T09:56:56.981Z,46.93
2019-03-21T09:57:56.953Z,48.56
2019-03-21T09:58:56.944Z,48.35
2019-03-21T09:59:56.894Z,47.95
2019-03-21T10:00:56.922Z,46.83
2019-03-21T10:01:56.883Z,47.11
2019-03-21T10:02:56.933Z,47.11
2019-03-21T10:03:56.840Z,46.20
2019-03-21T10:04:56.823Z,47.62
2019-03-21T10:05:56.817Z,45.99
2019-03-21T10:06:56.876Z,47.52
2019-03-21T10:07:59.348Z,47.72
2019-03-21T10:08:56.785Z,46.70
2019-03-21T10:09:56.780Z,45.89
2019-03-21T10:10:56.837Z,45.76
2019-03-21T10:11:56.779Z,43.84
2019-03-21T10:12:56.743Z,44.04
2019-03-21T10:13:56.785Z,43.93
2019-03-21T10:14:56.732Z,43.81
2019-03-21T10:15:56.712Z,43.81
2019-03-21T10:16:56.723Z,44.22
2019-03-21T10:17:56.705Z,43.71
2019-03-21T10:18:56.668Z,43.79
2019-03-21T10:19:56.702Z,43.99
2019-03-21T10:20:56.665Z,43.99
2019-03-21T10:21:56.652Z,43.77
2019-03-21T10:22:56.656Z,43.47
2019-03-21T10:23:56.632Z,41.84
2019-03-21T10:24:56.612Z,43.04
2019-03-21T10:25:57.130Z,41.72
2019-03-21T10:26:56.579Z,43.65
2019-03-21T10:27:57.536Z,43.35
2019-03-21T10:28:56.614Z,43.02
2019-03-21T10:29:56.564Z,42.61
2019-03-21T10:30:57.321Z,43.73
2019-03-21T10:31:56.526Z,42.72
2019-03-21T10:32:56.523Z,41.80
2019-03-21T10:33:56.508Z,41.70
2019-03-21T10:34:56.521Z,40.89
2019-03-21T10:35:56.543Z,42.00
2019-03-21T10:36:56.489Z,41.19
2019-03-21T10:37:56.484Z,41.30
2019-03-21T10:38:56.449Z,40.79
2019-03-21T10:39:56.497Z,40.38
2019-03-21T10:40:56.536Z,41.09
2019-03-21T10:41:56.470Z,41.70
2019-03-21T10:42:56.433Z,40.59
2019-03-21T10:43:56.420Z,41.07
2019-03-21T10:44:56.482Z,40.47
2019-03-21T10:45:57.030Z,40.97
2019-03-21T10:46:56.410Z,39.96
2019-03-21T10:47:56.354Z,41.17
2019-03-21T10:48:56.358Z,40.56
2019-03-21T10:49:56.378Z,39.94
2019-03-21T10:50:56.338Z,40.95
2019-03-21T10:51:56.576Z,41.26
2019-03-21T10:52:56.339Z,40.95
2019-03-21T10:53:56.316Z,41.26
2019-03-21T10:54:56.371Z,41.26
2019-03-21T10:55:56.344Z,40.63
2019-03-21T10:56:56.423Z,40.63
2019-03-21T10:57:56.367Z,40.73
2019-03-21T10:58:56.347Z,40.63
2019-03-21T10:59:56.221Z,40.63
2019-03-21T11:00:56.233Z,40.02
2019-03-21T11:02:06.840Z,40.94
2019-03-21T11:02:57.186Z,40.94
2019-03-21T11:03:56.228Z,40.83
2019-03-21T11:04:56.194Z,40.51
2019-03-21T11:05:56.157Z,40.11
2019-03-21T11:06:56.145Z,40.41
2019-03-21T11:07:56.191Z,40.94
2019-03-21T11:08:56.184Z,40.41
2019-03-21T11:09:56.116Z,41.02
2019-03-21T11:10:56.158Z,40.59
2019-03-21T11:11:56.141Z,40.89
2019-03-21T11:12:56.122Z,40.19
2019-03-21T11:13:56.126Z,40.59
2019-03-21T11:14:56.080Z,40.29
2019-03-21T11:15:56.129Z,40.29
2019-03-21T11:16:56.050Z,39.86
2019-03-21T11:17:56.042Z,40.19
2019-03-21T11:18:56.017Z,40.49
2019-03-21T11:19:56.055Z,39.66
2019-03-21T11:20:55.992Z,40.09
2019-03-21T11:22:05.750Z,38.95
2019-03-21T11:22:56.974Z,40.19
2019-03-21T11:23:55.958Z,39.78
2019-03-21T11:24:55.948Z,39.48
2019-03-21T11:25:56.014Z,39.66
2019-03-21T11:26:55.919Z,39.98
2019-03-21T11:27:55.915Z,39.56
2019-03-21T11:28:55.909Z,39.56
2019-03-21T11:29:55.931Z,39.58
2019-03-21T11:30:55.876Z,39.66
2019-03-21T11:31:55.862Z,39.58
2019-03-21T11:32:55.856Z,39.97
2019-03-21T11:33:55.904Z,38.75
2019-03-21T11:34:56.437Z,39.06
2019-03-21T11:35:55.839Z,39.86
2019-03-21T11:36:55.876Z,40.35
2019-03-21T11:37:55.804Z,40.15
2019-03-21T11:38:55.803Z,40.53
2019-03-21T11:39:55.829Z,40.13
2019-03-21T11:40:55.830Z,40.01
2019-03-21T11:41:55.778Z,38.59
2019-03-21T11:42:55.816Z,38.70
2019-03-21T11:43:55.757Z,38.09
2019-03-21T11:44:55.728Z,38.90
2019-03-21T11:45:56.122Z,38.49
2019-03-21T11:46:55.705Z,37.81
2019-03-21T11:47:55.716Z,38.59
2019-03-21T11:48:56.545Z,38.82
2019-03-21T11:49:55.698Z,38.82
2019-03-21T11:50:55.666Z,38.80
2019-03-21T11:51:55.664Z,38.59
2019-03-21T11:52:55.677Z,38.68
2019-03-21T11:53:55.694Z,38.26
2019-03-21T11:54:56.539Z,37.85
2019-03-21T11:55:55.656Z,37.37
2019-03-21T11:56:55.597Z,38.07
2019-03-21T11:57:55.581Z,37.57
2019-03-21T11:58:55.567Z,37.48
2019-03-21T11:59:55.628Z,37.79
2019-03-21T12:00:55.597Z,39.30
2019-03-21T12:01:55.535Z,39.61
2019-03-21T12:02:55.528Z,38.70
2019-03-21T12:03:55.631Z,38.56
2019-03-21T12:04:55.509Z,38.46
2019-03-21T12:05:55.607Z,36.93
2019-03-21T12:06:55.513Z,36.54
2019-03-21T12:07:55.471Z,37.85
2019-03-21T12:08:55.476Z,37.65
2019-03-21T12:09:55.522Z,36.84
2019-03-21T12:10:55.483Z,37.35
2019-03-21T12:11:55.461Z,37.46
2019-03-21T12:12:55.480Z,37.59
2019-03-21T12:13:55.408Z,37.48
2019-03-21T12:14:55.445Z,38.19
2019-03-21T12:15:55.420Z,38.29
2019-03-21T12:16:55.382Z,37.87
2019-03-21T12:17:55.412Z,37.85
2019-03-21T12:18:55.397Z,37.35
2019-03-21T12:19:55.404Z,37.43
2019-03-21T12:20:55.378Z,36.72
2019-03-21T12:21:55.316Z,37.11
2019-03-21T12:22:55.319Z,36.71
2019-03-21T12:23:55.545Z,37.21
2019-03-21T12:24:55.333Z,36.51
2019-03-21T12:25:55.380Z,36.49
2019-03-21T12:26:55.317Z,35.97
2019-03-21T12:27:55.277Z,36.17
2019-03-21T12:28:55.239Z,35.66
2019-03-21T12:29:55.248Z,35.14
2019-03-21T12:30:55.210Z,35.26
2019-03-21T12:31:55.250Z,34.94
2019-03-21T12:32:55.192Z,36.05
2019-03-21T12:33:55.301Z,35.35
2019-03-21T12:34:56.064Z,34.34
2019-03-21T12:35:55.165Z,35.53
2019-03-21T12:36:55.554Z,35.53
2019-03-21T12:37:55.137Z,35.33
2019-03-21T12:38:55.184Z,34.42
2019-03-21T12:39:55.172Z,34.83
2019-03-21T12:40:55.108Z,35.85
2019-03-21T12:41:55.108Z,35.14
2019-03-21T12:42:55.096Z,34.83
2019-03-21T12:43:55.070Z,34.64
2019-03-21T12:44:55.549Z,35.25
2019-03-21T12:45:55.310Z,34.63
2019-03-21T12:46:55.045Z,34.41
2019-03-21T12:47:55.045Z,34.49
2019-03-21T12:48:55.027Z,33.18
2019-03-21T12:49:55.055Z,33.20
2019-03-21T12:50:55.054Z,34.42
2019-03-21T12:51:55.057Z,34.63